Time;durP1;ratioP1;P1;durP2;ratioP2;P2;SDS_P1;SDS_P2;PMS_P1;PMS_P2;Temp;Humidity;BMP_temperature;BMP_pressure;BME280_temperature;BME280_humidity;BME280_pressure;Samples;Min_cycle;Max_cycle;Signal;HPM_P1;HPM_P2
2022/05/02 00:00:08;;;;;;;5.72;3.53;;;17.50;76.50;;;;;;5126321;27;20094;-65
2022/05/02 00:02:53;;;;;;;6.20;3.10;;;17.70;74.10;;;;;;5099765;27;20039;-67
2022/05/02 00:05:40;;;;;;;7.10;3.83;;;17.50;78.50;;;;;;5114960;27;20397;-64
2022/05/02 00:08:25;;;;;;;6.13;3.55;;;17.60;78.20;;;;;;5123159;27;20404;-66
2022/05/02 00:11:13;;;;;;;7.28;3.60;;;17.30;78.10;;;;;;5116775;27;20527;-65
2022/05/02 00:20:10;;;;;;;5.95;3.30;;;17.20;78.20;;;;;;5107954;27;20043;-64
2022/05/02 00:22:53;;;;;;;6.35;3.35;;;;;;;;;;5093564;28;20219;-67
2022/05/02 00:25:44;;;;;;;6.55;3.38;;;17.60;78.30;;;;;;5109455;27;20399;-68
2022/05/02 00:28:25;;;;;;;6.50;3.75;;;;;;;;;;5124236;27;20043;-66
2022/05/02 00:31:10;;;;;;;6.07;3.42;;;17.40;79.20;;;;;;5125815;27;20477;-64
2022/05/02 00:33:55;;;;;;;6.55;3.75;;;17.50;78.50;;;;;;5094110;27;20045;-64
2022/05/02 00:36:42;;;;;;;6.72;3.10;;;17.50;75.60;;;;;;5127003;27;20506;-64
2022/05/02 00:39:27;;;;;;;5.80;3.15;;;17.60;78.40;;;;;;5107873;27;20039;-66
2022/05/02 00:42:20;;;;;;;6.22;3.40;;;17.70;73.60;;;;;;5124819;27;20380;-67
2022/05/02 00:45:27;;;;;;;6.45;4.03;;;17.30;78.30;;;;;;5113251;28;20443;-67
2022/05/02 00:48:20;;;;;;;6.55;3.70;;;17.40;78.50;;;;;;5131608;27;20099;-67
2022/05/02 00:51:04;;;;;;;7.35;3.42;;;17.60;78.60;;;;;;5108956;27;20473;-66
2022/05/02 00:53:53;;;;;;;6.85;3.58;;;17.50;78.40;;;;;;5121325;27;20385;-65
2022/05/02 00:56:44;;;;;;;5.95;3.60;;;17.40;78.30;;;;;;5099950;28;20507;-64
2022/05/02 00:59:38;;;;;;;6.00;3.55;;;17.30;74.00;;;;;;5105774;28;20464;-67
2022/05/02 01:24:38;;;;;;;5.85;3.80;;;17.40;78.10;;;;;;5098783;28;20059;-64
2022/05/02 01:27:16;;;;;;;6.28;3.80;;;17.50;78.40;;;;;;5090665;28;20047;-65
2022/05/02 01:30:02;;;;;;;5.75;3.60;;;17.20;73.80;;;;;;5107686;28;20488;-64
2022/05/02 01:32:47;;;;;;;5.53;3.53;;;;;;;;;;5103789;28;20430;-63
2022/05/02 01:39:21;;;;;;;6.97;3.90;;;17.30;78.10;;;;;;5107511;28;20040;-64
2022/05/02 01:49:32;;;;;;;5.43;3.33;;;17.20;73.90;;;;;;5103106;28;20054;-64
2022/05/02 02:00:39;;;;;;;6.70;3.58;;;17.10;73.60;;;;;;5105555;27;20223;-63
2022/05/02 02:03:27;;;;;;;6.43;3.20;;;17.30;78.10;;;;;;5123818;27;20534;-64
2022/05/02 02:06:11;;;;;;;6.45;3.50;;;17.50;78.00;;;;;;5124407;27;20031;-64
2022/05/02 02:08:55;;;;;;;5.90;3.67;;;17.20;77.70;;;;;;5132192;27;20047;-63
2022/05/02 02:22:34;;;;;;;5.95;3.60;;;17.10;73.00;;;;;;5100266;27;20464;-64
2022/05/02 02:25:56;;;;;;;5.10;3.15;;;17.20;77.90;;;;;;5110191;28;20104;-65
2022/05/02 02:32:59;;;;;;;6.85;3.65;;;17.00;73.20;;;;;;5124744;27;22297;-64
2022/05/02 02:47:02;;;;;;;5.90;3.30;;;17.10;73.40;;;;;;5117830;28;20504;-67
2022/05/02 02:49:40;;;;;;;5.70;3.50;;;17.10;77.60;;;;;;5121760;28;20039;-68
2022/05/02 02:52:13;;;;;;;5.30;3.42;;;17.10;77.70;;;;;;5113617;28;20042;-65
2022/05/02 02:55:17;;;;;;;;;;;;;;;;;;;;;
2022/05/02 03:01:56;;;;;;;6.45;3.60;;;17.00;73.00;;;;;;5035360;28;20059;-65
2022/05/02 03:08:24;;;;;;;6.47;3.65;;;17.10;77.80;;;;;;5062670;28;20055;-66
2022/05/02 03:10:51;;;;;;;;;;;16.90;74.90;;;;;;5038541;28;20047;-64
2022/05/02 03:21:31;;;;;;;5.70;3.42;;;16.90;77.70;;;;;;4979569;28;20428;-64
2022/05/02 03:39:21;;;;;;;6.03;2.88;;;17.00;77.50;;;;;;4984858;28;20057;-64
2022/05/02 03:46:11;;;;;;;5.82;3.03;;;16.70;73.10;;;;;;4975131;28;20066;-64
2022/05/02 03:48:55;;;;;;;5.32;3.10;;;17.00;77.40;;;;;;4970072;28;20058;-64
2022/05/02 03:52:01;;;;;;;6.55;3.55;;;16.80;77.60;;;;;;4977617;28;20086;-63
2022/05/02 03:54:46;;;;;;;5.57;3.50;;;17.00;77.60;;;;;;5016623;28;20066;-64
2022/05/02 03:57:30;;;;;;;5.90;3.70;;;;;;;;;;5085798;28;20089;-65
2022/05/02 04:00:21;;;;;;;6.13;3.75;;;16.80;77.70;;;;;;5094389;28;20055;-66
2022/05/02 04:02:56;;;;;;;7.20;3.80;;;16.70;77.50;;;;;;5076753;28;20076;-64
2022/05/02 04:09:28;;;;;;;6.13;3.40;;;16.80;73.40;;;;;;5090663;28;20078;-64
2022/05/02 04:12:16;;;;;;;6.60;3.70;;;16.90;77.60;;;;;;5090089;28;20558;-63
2022/05/02 04:15:00;;;;;;;5.00;3.13;;;16.90;73.30;;;;;;5085361;28;20056;-64
2022/05/02 04:18:03;;;;;;;5.75;3.50;;;17.00;77.70;;;;;;5085348;28;20052;-63
2022/05/02 04:20:51;;;;;;;5.57;3.25;;;16.80;73.10;;;;;;5085469;28;20052;-63
2022/05/02 04:23:35;;;;;;;5.22;3.08;;;16.80;73.50;;;;;;5086559;28;20048;-65
2022/05/02 04:26:23;;;;;;;5.88;3.20;;;16.80;77.50;;;;;;5073569;28;20135;-66
2022/05/02 04:29:09;;;;;;;6.80;4.20;;;16.80;77.50;;;;;;5090613;28;20079;-63
2022/05/02 04:31:53;;;;;;;5.95;4.32;;;16.70;77.60;;;;;;5081887;28;20054;-64
2022/05/02 04:34:37;;;;;;;6.60;4.03;;;16.90;77.60;;;;;;5082098;28;20047;-64
2022/05/02 04:37:16;;;;;;;6.55;4.00;;;16.90;77.50;;;;;;5090993;28;20052;-64
2022/05/02 04:39:54;;;;;;;6.25;4.07;;;17.00;74.90;;;;;;5092914;28;20409;-65
2022/05/02 04:42:42;;;;;;;6.25;4.18;;;17.00;77.60;;;;;;5056141;28;20068;-64
2022/05/02 04:52:16;;;;;;;7.25;4.28;;;17.20;75.10;;;;;;5082731;28;20040;-64
2022/05/02 04:55:15;;;;;;;6.47;4.53;;;17.20;77.70;;;;;;5089379;28;20036;-65
2022/05/02 04:58:10;;;;;;;8.82;4.47;;;17.20;77.60;;;;;;5079261;28;20044;-66
2022/05/02 05:16:20;;;;;;;7.50;4.68;;;18.00;73.10;;;;;;5113080;27;20127;-64
2022/05/02 05:24:19;;;;;;;7.22;3.75;;;18.40;76.60;;;;;;5130376;27;20051;-65
2022/05/02 05:27:28;;;;;;;6.10;3.72;;;18.50;76.30;;;;;;5105166;28;20130;-65
2022/05/02 05:30:07;;;;;;;6.85;3.70;;;18.90;76.20;;;;;;5104547;28;20082;-64
2022/05/02 05:33:10;;;;;;;6.40;4.00;;;18.70;75.70;;;;;;5075403;28;20461;-65
2022/05/02 05:42:57;;;;;;;5.15;3.25;;;19.10;75.00;;;;;;5104179;28;20059;-65
2022/05/02 05:45:41;;;;;;;7.15;3.20;;;19.20;74.90;;;;;;5091431;27;20066;-64
2022/05/02 05:48:26;;;;;;;5.90;3.10;;;19.20;74.60;;;;;;5094170;27;20051;-66
2022/05/02 05:54:35;;;;;;;5.32;3.00;;;19.50;74.60;;;;;;5114529;28;20066;-67
2022/05/02 06:01:10;;;;;;;4.88;2.80;;;19.80;74.40;;;;;;5099626;27;20126;-65
2022/05/02 06:04:06;;;;;;;5.60;2.55;;;20.00;74.30;;;;;;5093668;28;20075;-65
2022/05/02 06:06:32;;;;;;;5.70;2.97;;;19.90;72.50;;;;;;5096719;28;20047;-70
2022/05/02 06:09:05;;;;;;;4.00;2.40;;;19.90;74.00;;;;;;5112507;27;20074;-69
2022/05/02 06:11:49;;;;;;;5.22;2.67;;;20.10;73.80;;;;;;5095850;27;20071;-66
2022/05/02 06:14:30;;;;;;;4.50;2.72;;;20.20;71.40;;;;;;5087226;28;20056;-70
2022/05/02 06:20:05;;;;;;;5.20;2.72;;;20.40;74.00;;;;;;5094430;28;20101;-72
2022/05/02 06:22:39;;;;;;;5.60;3.00;;;20.30;74.00;;;;;;5077364;28;20043;-69
2022/05/02 06:25:05;;;;;;;6.85;3.03;;;20.50;74.00;;;;;;5104842;28;20047;-65
2022/05/02 06:27:32;;;;;;;6.05;3.13;;;20.10;73.90;;;;;;5090173;28;20184;-71
2022/05/02 06:30:04;;;;;;;5.95;3.13;;;20.40;74.10;;;;;;5082762;28;20043;-70
2022/05/02 06:33:21;;;;;;;6.15;3.15;;;20.40;73.90;;;;;;5102311;28;20081;-71
2022/05/02 06:43:32;;;;;;;9.80;3.63;;;20.50;74.10;;;;;;5095286;28;20048;-67
2022/05/02 06:46:14;;;;;;;6.95;3.33;;;20.60;73.90;;;;;;5076420;28;20216;-66
2022/05/02 06:48:46;;;;;;;7.85;3.45;;;20.30;69.90;;;;;;5072997;28;20076;-65
2022/05/02 06:51:34;;;;;;;6.28;3.20;;;20.60;73.80;;;;;;5091869;28;20142;-65
2022/05/02 06:54:17;;;;;;;5.65;3.50;;;20.60;73.70;;;;;;5076452;28;20044;-68
2022/05/02 06:56:51;;;;;;;6.32;3.58;;;20.40;69.00;;;;;;5101608;28;20055;-67
2022/05/02 06:59:23;;;;;;;6.18;3.03;;;20.50;73.70;;;;;;5074566;28;20044;-68
2022/05/02 07:01:53;;;;;;;5.78;3.53;;;20.60;73.70;;;;;;5095663;28;20459;-72
2022/05/02 07:04:25;;;;;;;6.22;3.33;;;20.70;73.70;;;;;;5096089;28;20035;-72
2022/05/02 07:07:10;;;;;;;5.55;3.33;;;20.70;73.60;;;;;;5093187;28;20044;-71
2022/05/02 07:09:59;;;;;;;6.03;3.63;;;20.70;71.40;;;;;;5089651;28;20033;-72
2022/05/02 07:12:26;;;;;;;5.53;3.58;;;20.80;73.60;;;;;;5067561;28;20397;-70
2022/05/02 07:14:58;;;;;;;5.97;3.72;;;20.90;73.80;;;;;;5108437;28;20050;-65
2022/05/02 07:17:47;;;;;;;6.77;4.10;;;20.80;69.00;;;;;;5098614;28;20039;-70
2022/05/02 07:20:21;;;;;;;7.05;4.00;;;20.80;73.20;;;;;;5096547;28;20044;-71
2022/05/02 07:23:20;;;;;;;6.25;3.83;;;20.90;68.60;;;;;;5077277;28;20238;-65
2022/05/02 07:25:50;;;;;;;7.25;3.85;;;21.10;73.50;;;;;;5099035;28;20048;-64
2022/05/02 07:28:36;;;;;;;6.45;3.63;;;21.20;73.50;;;;;;5101978;28;20039;-67
2022/05/02 07:31:02;;;;;;;8.70;3.92;;;21.20;73.40;;;;;;5094461;28;20043;-68
2022/05/02 07:33:31;;;;;;;8.68;3.47;;;20.70;70.00;;;;;;5097676;28;20066;-66
2022/05/02 07:35:57;;;;;;;6.13;3.47;;;21.40;73.20;;;;;;5079677;28;20441;-68
2022/05/02 07:38:23;;;;;;;6.72;3.50;;;21.30;71.10;;;;;;5112452;28;20123;-69
2022/05/02 07:43:34;;;;;;;5.55;3.17;;;21.40;70.10;;;;;;5088232;28;20064;-67
2022/05/02 07:46:03;;;;;;;6.32;3.22;;;21.30;70.30;;;;;;5097722;28;20083;-68
2022/05/02 07:48:30;;;;;;;7.45;3.03;;;21.70;73.20;;;;;;5081658;28;20048;-68
2022/05/02 07:50:57;;;;;;;5.60;2.92;;;21.50;73.00;;;;;;5084668;28;20148;-68
2022/05/02 07:53:23;;;;;;;4.38;2.65;;;21.70;73.10;;;;;;5093839;28;20043;-68
2022/05/02 07:55:49;;;;;;;6.72;2.90;;;21.60;73.00;;;;;;5060384;28;20043;-66
2022/05/02 07:58:14;;;;;;;5.97;2.45;;;21.70;73.00;;;;;;5101906;28;20485;-65
2022/05/02 08:00:40;;;;;;;4.70;2.40;;;21.80;70.80;;;;;;5093590;28;20044;-66
2022/05/02 08:03:06;;;;;;;5.18;2.65;;;21.80;72.60;;;;;;5094569;28;20048;-65
2022/05/02 08:05:33;;;;;;;5.80;2.85;;;21.70;72.60;;;;;;5091052;28;20058;-66
2022/05/02 08:08:06;;;;;;;6.25;2.95;;;21.70;69.70;;;;;;5082189;28;20050;-68
2022/05/02 08:10:47;;;;;;;7.85;3.30;;;21.80;72.30;;;;;;5101592;28;20054;-65
2022/05/02 08:13:18;;;;;;;5.68;2.58;;;21.80;72.30;;;;;;5109123;27;20056;-66
2022/05/02 08:16:05;;;;;;;8.95;2.63;;;21.70;68.20;;;;;;5073512;28;20048;-65
2022/05/02 08:18:51;;;;;;;4.63;2.50;;;22.20;72.40;;;;;;5079312;28;20048;-67
2022/05/02 08:21:28;;;;;;;5.00;2.58;;;22.00;72.20;;;;;;5076960;28;20058;-66
2022/05/02 08:27:31;;;;;;;5.05;2.60;;;21.80;72.10;;;;;;5081612;28;20048;-65
2022/05/02 08:30:06;;;;;;;8.48;2.80;;;22.00;72.10;;;;;;5100513;28;20152;-66
2022/05/02 08:32:42;;;;;;;3.95;2.17;;;22.30;72.30;;;;;;5094099;28;20050;-66
2022/05/02 08:35:14;;;;;;;5.55;2.80;;;22.10;72.10;;;;;;5098217;28;20039;-65
2022/05/02 08:38:18;;;;;;;6.75;2.50;;;22.10;69.90;;;;;;5099524;28;20113;-68
2022/05/02 08:40:56;;;;;;;5.82;2.40;;;22.20;67.60;;;;;;5097270;28;20443;-67
2022/05/02 08:43:53;;;;;;;6.50;2.63;;;22.20;72.10;;;;;;5095670;28;20079;-65
2022/05/02 08:46:34;;;;;;;12.73;3.10;;;22.10;72.10;;;;;;5078901;28;20044;-66
2022/05/02 08:49:37;;;;;;;6.35;2.90;;;22.10;68.40;;;;;;5074397;28;20047;-67
2022/05/02 08:52:24;;;;;;;7.18;2.85;;;22.00;67.90;;;;;;5095675;28;20040;-66
2022/05/02 08:55:20;;;;;;;5.88;2.78;;;21.90;68.10;;;;;;5092864;28;20130;-68
2022/05/02 08:58:01;;;;;;;6.60;3.03;;;22.10;68.00;;;;;;5097378;28;20051;-65
2022/05/02 09:00:42;;;;;;;6.20;2.95;;;22.20;72.10;;;;;;5107540;28;20433;-64
2022/05/02 09:03:40;;;;;;;6.72;3.13;;;22.10;68.00;;;;;;5114218;28;20047;-68
2022/05/02 09:06:23;;;;;;;6.85;3.00;;;22.00;72.10;;;;;;5055964;28;20044;-65
2022/05/02 09:09:20;;;;;;;7.25;3.05;;;22.20;69.70;;;;;;5051403;28;20060;-68
2022/05/02 09:11:55;;;;;;;6.88;2.80;;;22.00;72.10;;;;;;5077100;28;20413;-64
2022/05/02 09:14:52;;;;;;;5.65;3.17;;;22.20;72.20;;;;;;5012966;28;20049;-63
2022/05/02 09:17:29;;;;;;;8.20;3.30;;;22.10;72.20;;;;;;5034411;28;20116;-68
2022/05/02 09:20:32;;;;;;;11.68;3.25;;;22.20;72.20;;;;;;5030310;28;20044;-65
2022/05/02 09:23:11;;;;;;;13.60;3.80;;;22.20;72.20;;;;;;4999219;28;20057;-67
2022/05/02 09:26:14;;;;;;;8.38;4.70;;;22.20;68.10;;;;;;5027401;28;20053;-67
2022/05/02 09:28:52;;;;;;;7.75;4.88;;;22.10;70.80;;;;;;5041875;28;20087;-67
2022/05/02 09:31:30;;;;;;;9.00;5.22;;;22.10;71.30;;;;;;5046454;28;20040;-67
2022/05/02 09:34:22;;;;;;;9.98;5.20;;;21.80;67.70;;;;;;5003641;28;20040;-69
2022/05/02 09:36:48;;;;;;;9.93;5.37;;;;;;;;;;5036557;28;20128;-67
2022/05/02 09:39:16;;;;;;;12.80;4.68;;;22.10;67.00;;;;;;5051254;28;20052;-68
2022/05/02 09:42:02;;;;;;;9.43;5.18;;;22.10;71.80;;;;;;5026701;28;20494;-69
2022/05/02 09:50:21;;;;;;;9.65;4.88;;;22.00;71.90;;;;;;5098077;28;20483;-70
2022/05/02 09:52:52;;;;;;;10.18;5.00;;;22.00;71.90;;;;;;5072381;28;20048;-71
2022/05/02 09:58:37;;;;;;;9.18;4.13;;;22.00;72.20;;;;;;5100224;28;20057;-70
2022/05/02 10:01:07;;;;;;;9.27;4.28;;;22.00;72.30;;;;;;5062216;28;20044;-70
2022/05/02 10:03:40;;;;;;;8.45;4.15;;;22.30;72.50;;;;;;5076129;28;20094;-66
2022/05/02 10:06:27;;;;;;;9.00;4.03;;;22.30;72.60;;;;;;5078696;28;20098;-71
2022/05/02 10:08:58;;;;;;;8.95;5.10;;;22.10;72.90;;;;;;5089068;28;20046;-71
2022/05/02 10:12:01;;;;;;;7.50;4.22;;;22.00;72.20;;;;;;5054570;28;20058;-69
2022/05/02 10:14:30;;;;;;;;;;;22.00;68.50;;;;;;5080176;28;20092;-71
2022/05/02 10:17:10;;;;;;;9.40;4.97;;;22.20;72.40;;;;;;5086690;28;20015;-71
2022/05/02 10:19:38;;;;;;;7.72;4.47;;;22.10;67.50;;;;;;5098709;28;20051;-67
2022/05/02 10:22:19;;;;;;;16.98;4.60;;;22.20;72.70;;;;;;5069897;28;20511;-70
2022/05/02 10:25:07;;;;;;;13.40;5.22;;;22.00;72.30;;;;;;5097614;28;20051;-70
2022/05/02 10:27:45;;;;;;;18.80;5.43;;;22.00;72.60;;;;;;5101721;28;20105;-70
2022/05/02 10:30:12;;;;;;;8.98;5.00;;;21.80;72.30;;;;;;5087600;28;20047;-64
2022/05/02 10:32:45;;;;;;;8.90;5.15;;;22.00;71.90;;;;;;5067664;28;20490;-67
2022/05/02 10:35:15;;;;;;;;;;;22.20;69.90;;;;;;5075252;28;20048;-67
2022/05/02 10:38:00;;;;;;;9.63;4.70;;;21.90;72.10;;;;;;5075569;28;20335;-66
2022/05/02 10:40:30;;;;;;;12.93;5.95;;;22.20;68.30;;;;;;5063507;28;20059;-66
2022/05/02 10:42:57;;;;;;;11.75;5.00;;;21.80;71.80;;;;;;5102446;28;20048;-66
2022/05/02 10:45:27;;;;;;;10.43;6.15;;;21.80;69.20;;;;;;5077913;28;20045;-64
2022/05/02 10:47:59;;;;;;;12.30;5.70;;;21.80;68.90;;;;;;5065424;28;20056;-67
2022/05/02 10:50:31;;;;;;;10.20;6.43;;;22.10;66.60;;;;;;5096295;28;20041;-66
2022/05/02 10:53:03;;;;;;;10.52;5.70;;;21.70;71.10;;;;;;5089721;28;20040;-67
2022/05/02 10:55:33;;;;;;;10.45;5.50;;;21.90;67.40;;;;;;5093219;28;20402;-65
2022/05/02 10:58:08;;;;;;;11.27;5.68;;;21.90;71.20;;;;;;5046799;28;20040;-65
2022/05/02 11:00:34;;;;;;;10.07;5.50;;;21.90;71.30;;;;;;5058435;28;20127;-66
2022/05/02 11:03:02;;;;;;;10.95;5.63;;;21.80;71.20;;;;;;5076003;28;20106;-65
2022/05/02 11:05:42;;;;;;;10.85;5.47;;;22.00;71.50;;;;;;5091223;28;20040;-64
2022/05/02 11:08:09;;;;;;;9.55;5.72;;;21.70;71.40;;;;;;5077446;28;20048;-64
2022/05/02 11:10:50;;;;;;;9.30;5.15;;;21.70;71.60;;;;;;5082701;28;20489;-64
2022/05/02 11:13:37;;;;;;;9.82;5.28;;;21.80;71.70;;;;;;5081375;28;20426;-65
2022/05/02 11:16:26;;;;;;;12.07;5.40;;;22.00;68.00;;;;;;5101554;28;20096;-65
2022/05/02 11:22:22;;;;;;;12.90;4.97;;;21.90;71.90;;;;;;5109005;28;20039;-64
2022/05/02 11:25:01;;;;;;;;;;;22.00;68.10;;;;;;5101089;28;20040;-64
2022/05/02 11:27:36;;;;;;;7.13;4.32;;;21.70;71.70;;;;;;5099008;28;19920;-64
2022/05/02 11:30:12;;;;;;;7.72;4.18;;;21.90;71.90;;;;;;5113753;28;20396;-64
2022/05/02 11:32:37;;;;;;;8.07;4.90;;;22.00;72.10;;;;;;5083414;28;20204;-70
2022/05/02 11:35:33;;;;;;;9.93;4.63;;;22.10;71.90;;;;;;5112323;28;20329;-69
2022/05/02 11:38:19;;;;;;;6.45;4.32;;;22.00;71.60;;;;;;5058166;28;20118;-64
2022/05/02 11:40:59;;;;;;;7.28;3.97;;;22.10;70.10;;;;;;5051846;28;20040;-65
2022/05/02 11:43:28;;;;;;;7.63;3.88;;;21.90;71.70;;;;;;5058793;28;20106;-65
2022/05/02 11:46:10;;;;;;;6.45;3.78;;;22.20;72.00;;;;;;5043398;28;20067;-65
2022/05/02 11:49:07;;;;;;;6.70;3.55;;;22.10;71.90;;;;;;5057363;28;20048;-66
2022/05/02 11:51:33;;;;;;;6.40;4.13;;;22.30;71.90;;;;;;4996728;28;20054;-70
2022/05/02 11:53:59;;;;;;;6.28;3.67;;;22.00;71.80;;;;;;4979635;28;20512;-65
2022/05/02 11:56:30;;;;;;;9.32;4.07;;;22.10;71.80;;;;;;4963799;28;20055;-69
2022/05/02 11:59:08;;;;;;;5.95;3.75;;;21.90;71.80;;;;;;4962074;28;20042;-68
2022/05/02 12:01:37;;;;;;;7.55;3.40;;;22.00;72.00;;;;;;4946333;28;20141;-65
2022/05/02 12:04:04;;;;;;;6.68;3.47;;;22.00;72.10;;;;;;4946301;28;20050;-67
2022/05/02 12:06:51;;;;;;;5.63;3.50;;;22.20;72.10;;;;;;4977390;28;20054;-66
2022/05/02 12:09:24;;;;;;;7.47;4.13;;;21.90;71.80;;;;;;4960367;28;20058;-70
2022/05/02 12:11:54;;;;;;;7.68;4.22;;;21.90;71.60;;;;;;4961267;28;20054;-63
2022/05/02 12:14:21;;;;;;;6.63;4.00;;;22.20;71.70;;;;;;4964581;28;20483;-65
2022/05/02 12:17:11;;;;;;;10.13;4.05;;;22.10;71.70;;;;;;5029864;28;20132;-64
2022/05/02 12:19:38;;;;;;;7.18;3.40;;;22.00;71.60;;;;;;5006175;28;20121;-66
2022/05/02 12:22:12;;;;;;;6.50;3.85;;;21.90;68.80;;;;;;5016040;28;20065;-64
2022/05/02 12:24:38;;;;;;;7.15;3.20;;;22.10;71.40;;;;;;5014449;28;20056;-64
2022/05/02 12:27:11;;;;;;;7.45;3.80;;;22.10;71.60;;;;;;5001658;28;20044;-64
2022/05/02 12:29:37;;;;;;;12.85;4.55;;;21.80;71.30;;;;;;5080029;28;20040;-65
2022/05/02 12:32:05;;;;;;;12.30;3.92;;;22.20;71.50;;;;;;5083827;28;20138;-64
2022/05/02 12:34:42;;;;;;;6.75;3.67;;;22.00;71.40;;;;;;5084268;28;20051;-66
2022/05/02 12:37:27;;;;;;;16.38;3.65;;;22.10;71.80;;;;;;5073320;28;20105;-69
2022/05/02 12:40:08;;;;;;;6.63;3.90;;;22.10;71.60;;;;;;5090894;28;20432;-66
2022/05/02 12:42:37;;;;;;;6.15;3.53;;;22.00;68.40;;;;;;5081925;28;20443;-64
2022/05/02 12:45:07;;;;;;;5.75;3.67;;;21.70;71.30;;;;;;5079297;28;20134;-68
2022/05/02 12:47:39;;;;;;;9.13;3.58;;;22.00;71.30;;;;;;5080106;28;20048;-69
2022/05/02 12:50:12;;;;;;;8.48;4.10;;;21.90;67.80;;;;;;5080612;28;20049;-67
2022/05/02 12:52:45;;;;;;;8.10;3.95;;;21.80;71.30;;;;;;5079788;28;20405;-65
2022/05/02 12:55:13;;;;;;;7.10;4.40;;;21.80;71.10;;;;;;5086076;28;20401;-70
2022/05/02 13:00:46;;;;;;;7.05;3.83;;;21.80;71.20;;;;;;5085194;28;20915;-61
2022/05/02 13:03:17;;;;;;;6.78;4.40;;;21.60;71.20;;;;;;5085147;28;20051;-67
2022/05/02 13:05:46;;;;;;;7.00;4.28;;;21.90;71.50;;;;;;5085526;28;20040;-63
2022/05/02 13:08:16;;;;;;;6.10;4.18;;;21.90;71.50;;;;;;5091424;28;20036;-62
2022/05/02 13:10:48;;;;;;;5.05;3.35;;;21.70;71.70;;;;;;5100428;28;20051;-70
2022/05/02 13:13:15;;;;;;;7.57;3.63;;;22.00;71.80;;;;;;5108125;28;20127;-64
2022/05/02 13:15:45;;;;;;;6.47;3.85;;;21.80;71.80;;;;;;5104071;28;20047;-70
2022/05/02 13:18:18;;;;;;;6.07;3.72;;;21.80;71.90;;;;;;5100521;28;20119;-70
2022/05/02 13:21:03;;;;;;;8.75;4.10;;;21.70;68.60;;;;;;5098322;28;20082;-67
2022/05/02 13:23:44;;;;;;;11.13;3.65;;;21.80;72.50;;;;;;5081240;28;20055;-66
2022/05/02 13:26:29;;;;;;;11.90;4.85;;;21.90;72.60;;;;;;5089559;28;20047;-64
2022/05/02 13:29:05;;;;;;;9.82;4.40;;;21.80;72.90;;;;;;5100215;28;20065;-63
2022/05/02 13:31:34;;;;;;;13.65;4.47;;;21.80;72.50;;;;;;5100762;28;20043;-65
2022/05/02 13:34:03;;;;;;;14.25;3.78;;;21.80;69.80;;;;;;5104836;28;20079;-62
2022/05/02 13:36:30;;;;;;;6.65;3.40;;;21.80;73.10;;;;;;5113780;28;20056;-63
2022/05/02 13:39:04;;;;;;;7.00;3.42;;;22.00;73.60;;;;;;5106411;28;20040;-68
2022/05/02 13:41:37;;;;;;;22.58;4.20;;;22.00;73.60;;;;;;5109436;28;20409;-69
2022/05/02 13:44:15;;;;;;;;;;;21.80;70.60;;;;;;5109659;28;20039;-69
2022/05/02 13:46:42;;;;;;;6.88;3.40;;;21.90;73.30;;;;;;5105893;28;19926;-65
2022/05/02 13:49:20;;;;;;;6.57;3.50;;;21.80;70.10;;;;;;5103060;28;20040;-66
2022/05/02 13:52:24;;;;;;;8.68;3.22;;;21.80;73.30;;;;;;5106589;28;20040;-67
2022/05/02 13:54:54;;;;;;;7.57;3.53;;;22.00;71.30;;;;;;5070851;28;20452;-65
2022/05/02 13:57:26;;;;;;;6.05;3.17;;;21.90;70.60;;;;;;5077882;28;20132;-65
2022/05/02 14:03:43;;;;;;;6.55;3.78;;;21.90;69.50;;;;;;5011489;28;20046;-66
2022/05/02 14:06:13;;;;;;;8.88;3.42;;;22.00;73.40;;;;;;5011259;28;20046;-66
2022/05/02 14:08:42;;;;;;;5.55;3.08;;;21.80;73.20;;;;;;4995120;28;20073;-65
2022/05/02 14:11:13;;;;;;;6.18;3.72;;;22.00;73.50;;;;;;5011225;28;20054;-70
2022/05/02 14:13:39;;;;;;;7.13;3.70;;;21.80;73.30;;;;;;5010587;28;20051;-65
2022/05/02 14:16:05;;;;;;;5.70;3.47;;;21.70;73.50;;;;;;5010804;28;20455;-65
2022/05/02 14:18:59;;;;;;;5.32;3.42;;;21.70;71.00;;;;;;5010201;28;20050;-69
2022/05/02 14:21:26;;;;;;;6.65;3.28;;;21.70;73.40;;;;;;5010297;28;20050;-65
2022/05/02 14:23:58;;;;;;;7.45;3.60;;;21.80;73.60;;;;;;5010669;28;20053;-65
2022/05/02 14:26:30;;;;;;;8.05;3.88;;;21.70;69.30;;;;;;5010977;28;20093;-66
2022/05/02 14:28:57;;;;;;;9.02;4.05;;;21.40;73.40;;;;;;5010336;28;20038;-64
2022/05/02 14:31:37;;;;;;;8.60;3.38;;;21.80;73.70;;;;;;5041769;28;20119;-70
2022/05/02 14:34:12;;;;;;;9.07;3.40;;;21.70;73.70;;;;;;5035220;28;20525;-65
2022/05/02 14:36:41;;;;;;;6.80;2.80;;;21.60;73.60;;;;;;5041447;28;20080;-67
2022/05/02 14:39:08;;;;;;;7.00;2.95;;;21.60;74.10;;;;;;5085975;28;20130;-65
2022/05/02 14:41:38;;;;;;;8.32;3.20;;;21.90;71.40;;;;;;5112777;28;20503;-66
2022/05/02 14:44:07;;;;;;;5.72;2.70;;;21.70;74.00;;;;;;5108499;28;20126;-65
2022/05/02 14:46:37;;;;;;;6.57;2.90;;;21.80;74.50;;;;;;5079743;28;20044;-65
2022/05/02 14:49:03;;;;;;;6.22;2.90;;;21.80;74.90;;;;;;5092557;28;20119;-66
2022/05/02 14:51:30;;;;;;;8.60;2.97;;;21.70;71.30;;;;;;5086465;28;20131;-65
2022/05/02 14:53:57;;;;;;;6.72;2.92;;;21.80;74.50;;;;;;5093732;28;20032;-70
2022/05/02 14:56:23;;;;;;;5.68;3.05;;;21.50;71.20;;;;;;5087576;28;20087;-65
2022/05/02 14:58:50;;;;;;;7.00;3.08;;;21.80;74.50;;;;;;5068787;28;20086;-71
2022/05/02 15:01:16;;;;;;;7.15;3.33;;;21.60;74.70;;;;;;5075508;28;20097;-65
2022/05/02 15:03:53;;;;;;;4.68;2.80;;;21.50;71.60;;;;;;5083085;28;20052;-64
2022/05/02 15:06:24;;;;;;;5.30;2.75;;;21.80;75.10;;;;;;5075801;28;20397;-66
2022/05/02 15:09:08;;;;;;;5.05;2.60;;;21.60;70.90;;;;;;5083219;28;20052;-69
2022/05/02 15:11:56;;;;;;;4.43;2.50;;;21.50;74.50;;;;;;5097719;28;20063;-70
2022/05/02 15:14:42;;;;;;;4.32;2.47;;;21.50;74.50;;;;;;5104919;28;20072;-66
2022/05/02 15:17:21;;;;;;;5.25;2.70;;;21.70;74.60;;;;;;5107498;28;20131;-65
2022/05/02 15:20:05;;;;;;;5.22;2.70;;;21.50;70.70;;;;;;5106966;28;20044;-70
2022/05/02 15:22:32;;;;;;;5.32;2.60;;;21.30;74.70;;;;;;5102516;28;20043;-63
2022/05/02 15:36:39;;;;;;;6.15;2.58;;;21.50;72.00;;;;;;5066621;28;20040;-63
2022/05/02 15:38:56;;;;;;;4.20;2.40;;;21.30;74.80;;;;;;5037365;28;20525;-63
2022/05/02 15:41:40;;;;;;;6.80;2.60;;;21.50;75.10;;;;;;5036408;28;20044;-61
2022/05/02 15:44:22;;;;;;;6.82;2.70;;;21.60;75.30;;;;;;5053302;28;20056;-64
2022/05/02 15:46:56;;;;;;;4.47;2.60;;;21.40;75.10;;;;;;5036484;28;20063;-63
2022/05/02 15:49:26;;;;;;;4.72;2.63;;;21.50;75.00;;;;;;5052874;28;20087;-61
2022/05/02 15:52:04;;;;;;;6.18;3.08;;;21.60;70.70;;;;;;5033316;28;20077;-64
2022/05/02 15:54:34;;;;;;;5.03;2.92;;;21.40;75.10;;;;;;5051379;28;20076;-69
2022/05/02 15:57:00;;;;;;;7.63;3.28;;;21.30;75.30;;;;;;5034290;28;20057;-70
2022/05/02 15:59:42;;;;;;;5.80;3.05;;;21.50;75.50;;;;;;5035553;28;20048;-67
2022/05/02 16:02:19;;;;;;;16.13;3.50;;;21.10;73.10;;;;;;5019029;28;20059;-62
2022/05/02 16:04:51;;;;;;;7.00;3.05;;;21.20;73.00;;;;;;5013294;28;20049;-65
2022/05/02 16:12:52;;;;;;;5.22;3.40;;;21.20;76.10;;;;;;5111147;27;20111;-69
2022/05/02 16:15:19;;;;;;;6.80;2.92;;;21.20;76.10;;;;;;5128885;27;20043;-65
2022/05/02 16:17:50;;;;;;;5.75;2.70;;;21.00;76.80;;;;;;5099563;27;20096;-64
2022/05/02 16:20:16;;;;;;;5.55;2.80;;;20.90;76.10;;;;;;5135892;27;20404;-65
2022/05/02 16:22:43;;;;;;;4.40;2.70;;;21.10;76.60;;;;;;5119428;27;20082;-69
2022/05/02 16:25:13;;;;;;;36.83;11.32;;;21.10;76.30;;;;;;5121954;27;20032;-66
2022/05/02 16:27:41;;;;;;;32.25;10.20;;;21.00;76.20;;;;;;5117819;27;20051;-65
2022/05/02 16:30:07;;;;;;;22.30;8.05;;;20.90;76.40;;;;;;5104297;28;20036;-66
2022/05/02 16:32:44;;;;;;;25.20;7.85;;;21.00;76.00;;;;;;5132436;27;20131;-62
2022/05/02 16:35:23;;;;;;;20.02;7.00;;;20.90;72.10;;;;;;5107625;28;20149;-67
2022/05/02 16:37:50;;;;;;;17.58;7.13;;;21.10;75.90;;;;;;5106125;27;20075;-65
2022/05/02 16:40:28;;;;;;;16.25;6.47;;;21.00;73.00;;;;;;5127372;27;20480;-65
2022/05/02 16:43:02;;;;;;;16.20;6.13;;;20.80;75.40;;;;;;5108494;27;20055;-65
2022/05/02 16:45:29;;;;;;;16.55;5.65;;;21.00;73.00;;;;;;5119201;27;20413;-65
2022/05/02 16:47:57;;;;;;;16.80;5.75;;;20.80;75.20;;;;;;5123150;27;20048;-64
2022/05/02 16:50:30;;;;;;;19.80;5.40;;;20.90;71.70;;;;;;5105677;28;20083;-63
2022/05/02 16:52:56;;;;;;;15.00;5.40;;;20.70;75.20;;;;;;5103967;27;20476;-65
2022/05/02 16:55:22;;;;;;;12.25;4.70;;;20.90;75.20;;;;;;5121455;27;20092;-65
2022/05/02 16:57:48;;;;;;;12.68;4.35;;;20.70;74.90;;;;;;5089334;27;20401;-65
2022/05/02 17:00:25;;;;;;;14.93;4.70;;;20.70;75.00;;;;;;5061285;28;20118;-65
2022/05/02 17:02:58;;;;;;;11.25;3.88;;;20.70;74.70;;;;;;5124631;27;20374;-68
2022/05/02 17:05:32;;;;;;;14.20;4.32;;;20.60;74.60;;;;;;5105297;28;20043;-62
2022/05/02 17:07:58;;;;;;;11.48;3.90;;;20.60;74.40;;;;;;5115158;27;20039;-64
2022/05/02 17:10:24;;;;;;;9.13;3.25;;;20.80;74.50;;;;;;5117589;27;20504;-63